TFM - Tactical Decision Aid (Experimental) INFO Settings
ID: Runway Winds: CIG/VIS Threshold: METAR Board: Map:

KDFW - Dallas/Fort Worth Intl

Updated at: 1505 UTC 13 Feb 2016
Latest TAF at: 1504 UTC 13 Feb 2016

TAF Board

Time1453Z13/16Z13/17Z13/18Z13/19Z13/20Z13/21Z13/22Z13/23Z14/00Z14/01Z14/02Z14/03Z14/04Z
TypeOBSPRVLPRVLPRVLPRVLPRVLPRVLPRVLPRVLPRVLPRVLPRVLPRVLPRVL
VIS10>6>6>6>6>6>6>6>6>6>6>6>6>6
CIG------------4040404040402020
CoverFEWFEWSCTSCTSCTSCTBKNBKNBKNBKNBKNBKNBKNBKN
FltCatVFRVFRVFRVFRVFRVFRVFRVFRVFRVFRVFRVFRMVFRMVFR
WX----------------------------
WDir8050120120120120140140140140140140160160
WSpd88101010101313131313131515
WGst----------------------------
TAF
KDFW 131504Z 1315/1418 05008KT P6SM FEW030
  FM131700 12010KT P6SM SCT040
  FM132100 14013KT P6SM BKN040
  FM140300 16015KT P6SM BKN020
  FM140600 17015KT P6SM OVC012
  FM141700 20015G25KT P6SM SCT020 BKN035


METAR
KDFW 131453Z 08008KT 10SM FEW030 08/00 A3040 RMK AO2 SLP293 FU FEW030 T00830000 51008
KDFW 131353Z 04007KT 10SM FEW030 05/M01 A3040 RMK AO2 SLP292 FU FEW030 T00501006

TAF/METAR Board Legend

Potential Impact
  None Marginal Slight Moderate High
Visibility (sm) >5 3≤X≤5 1≤X<3 0.5≤X<1 <0.5
Ceiling (100 ft) >30 10≤X≤30 4≤X<10 2≤X<4 <2
Wind Speed (kt) <10 10≤X<20 20≤X<30 ≥30
Wind Gust (kt) <15 15≤X<25 25≤X<35 ≥35
Weather No Wx Reported VCTS -TS,-FZRA TS,FZRA +TS,+FZRA